Time;durP1;ratioP1;P1;durP2;ratioP2;P2;SDS_P1;SDS_P2;PMS_P1;PMS_P2;Temp;Humidity;BMP_temperature;BMP_pressure;BME280_temperature;BME280_humidity;BME280_pressure;Samples;Min_cycle;Max_cycle;Signal;HPM_P1;HPM_P2
2022/12/07 00:02:24;;;;;;;32.67;15.55;;;;;;;3.62;100.00;101474.69;4950914;28;20058;-78
2022/12/07 00:04:49;;;;;;;25.55;16.65;;;;;;;3.58;100.00;101473.22;4962502;28;20035;-78
2022/12/07 00:07:15;;;;;;;31.92;16.95;;;;;;;3.48;100.00;101480.66;4949698;28;20049;-77
2022/12/07 00:09:41;;;;;;;29.88;16.35;;;;;;;3.47;100.00;101474.72;4946018;28;20043;-77
2022/12/07 00:12:06;;;;;;;29.70;16.00;;;;;;;3.48;100.00;101480.66;4945112;28;20504;-78
2022/12/07 00:14:32;;;;;;;25.77;15.70;;;;;;;3.48;100.00;101478.09;4944992;28;20050;-78
2022/12/07 00:16:57;;;;;;;31.75;16.88;;;;;;;3.67;100.00;101486.31;4934608;28;20043;-78
2022/12/07 00:19:23;;;;;;;32.08;17.17;;;;;;;3.63;100.00;101474.56;4947719;28;20392;-78
2022/12/07 00:21:48;;;;;;;35.60;18.15;;;;;;;3.56;100.00;101472.50;4949301;28;20050;-77
2022/12/07 00:24:14;;;;;;;33.58;17.85;;;;;;;3.46;100.00;101478.19;4947253;28;20046;-78
2022/12/07 00:26:41;;;;;;;36.13;17.67;;;;;;;3.47;100.00;101479.84;4939812;28;20051;-78
2022/12/07 00:29:14;;;;;;;30.63;18.10;;;;;;;3.50;100.00;101474.53;4948226;28;20027;-78
2022/12/07 00:31:39;;;;;;;;;;;;;;;3.54;100.00;101482.84;4942579;28;20086;-78
2022/12/07 00:34:06;;;;;;;34.13;18.80;;;;;;;3.67;100.00;101477.78;4946460;28;20375;-78
2022/12/07 00:36:32;;;;;;;39.08;20.05;;;;;;;3.56;100.00;101468.22;4946312;28;20051;-78
2022/12/07 00:38:59;;;;;;;29.83;18.20;;;;;;;3.58;100.00;101466.38;4941779;28;20046;-77
2022/12/07 00:41:27;;;;;;;41.60;19.90;;;;;;;3.60;100.00;101468.81;4942253;28;20074;-77
2022/12/07 00:43:53;;;;;;;35.28;19.40;;;;;;;3.60;100.00;101463.69;4943795;28;20040;-77
2022/12/07 00:46:19;;;;;;;39.35;20.10;;;;;;;3.63;100.00;101466.88;4935207;28;20043;-78
2022/12/07 00:48:45;;;;;;;36.35;20.52;;;;;;;3.65;100.00;101471.94;4944835;28;20046;-78
2022/12/07 00:51:12;;;;;;;40.13;20.63;;;;;;;3.73;100.00;101462.03;4946369;28;20054;-78
2022/12/07 00:53:39;;;;;;;36.50;20.75;;;;;;;3.64;100.00;101460.84;4947490;28;20081;-75
2022/12/07 00:56:06;;;;;;;40.20;20.73;;;;;;;3.65;100.00;101461.66;4947882;28;20058;-78
2022/12/07 00:58:32;;;;;;;41.30;20.85;;;;;;;3.72;100.00;101459.56;4949657;28;20071;-77
2022/12/07 01:01:01;;;;;;;36.65;20.73;;;;;;;3.71;100.00;101448.44;4944508;28;20047;-78
2022/12/07 01:03:27;;;;;;;37.50;21.50;;;;;;;3.64;100.00;101447.22;4961669;28;20031;-78
2022/12/07 01:05:54;;;;;;;37.38;20.80;;;;;;;3.63;100.00;101448.13;4937466;28;20056;-83
2022/12/07 01:08:20;;;;;;;43.10;22.48;;;;;;;3.68;100.00;101451.22;4926791;29;20070;-78
2022/12/07 01:10:46;;;;;;;43.10;21.50;;;;;;;3.59;100.00;101456.94;4931363;28;20047;-78
2022/12/07 01:13:12;;;;;;;38.95;21.05;;;;;;;3.55;100.00;101450.34;4943153;28;20131;-78
2022/12/07 01:15:44;;;;;;;38.05;20.52;;;;;;;3.49;100.00;101454.09;4944728;28;20047;-80
2022/12/07 01:18:10;;;;;;;39.58;21.42;;;;;;;3.48;100.00;101458.41;4939780;28;20118;-78
2022/12/07 01:20:36;;;;;;;39.50;21.77;;;;;;;3.52;100.00;101459.03;4948537;28;20150;-78
2022/12/07 01:23:03;;;;;;;32.80;19.77;;;;;;;3.60;100.00;101461.13;4945061;28;20031;-78
2022/12/07 01:25:28;;;;;;;44.15;22.58;;;;;;;3.60;100.00;101466.25;4931439;28;20110;-79
2022/12/07 01:27:54;;;;;;;33.40;20.45;;;;;;;3.56;100.00;101460.50;4949739;28;20039;-80
2022/12/07 01:30:19;;;;;;;36.97;20.35;;;;;;;3.49;100.00;101454.09;4946769;28;20030;-79
2022/12/07 01:32:45;;;;;;;44.00;22.05;;;;;;;3.53;100.00;101453.00;4967512;28;20118;-78
2022/12/07 01:35:10;;;;;;;36.47;21.55;;;;;;;3.54;100.00;101457.19;4951022;28;20054;-80
2022/12/07 01:37:37;;;;;;;39.70;22.42;;;;;;;3.49;100.00;101456.66;4946285;28;20035;-79
2022/12/07 01:40:06;;;;;;;37.13;21.30;;;;;;;3.49;100.00;101452.34;4953766;28;20050;-79
2022/12/07 01:42:31;;;;;;;39.55;21.92;;;;;;;3.55;100.00;101466.53;4945210;28;20114;-79
2022/12/07 01:45:41;;;;;;;38.72;21.30;;;;;;;3.44;100.00;101456.94;4943938;28;20481;-79
2022/12/07 01:48:10;;;;;;;40.40;22.23;;;;;;;3.35;100.00;101462.63;4935788;28;20055;-79
2022/12/07 01:50:38;;;;;;;44.60;23.15;;;;;;;3.39;100.00;101455.56;4944963;28;20689;-82
2022/12/07 01:53:06;;;;;;;42.33;22.92;;;;;;;3.44;100.00;101453.56;4929153;28;22826;-79
2022/12/07 01:55:33;;;;;;;41.08;22.60;;;;;;;3.38;100.00;101459.06;4944074;28;20058;-79
2022/12/07 01:57:58;;;;;;;38.35;22.92;;;;;;;3.36;100.00;101459.16;4958418;28;20035;-80
2022/12/07 02:00:24;;;;;;;47.95;22.90;;;;;;;3.39;100.00;101458.97;4954713;28;20341;-80
2022/12/07 02:02:53;;;;;;;38.92;22.52;;;;;;;3.28;100.00;101449.38;4942195;28;20396;-75
2022/12/07 02:05:19;;;;;;;39.20;23.27;;;;;;;3.28;100.00;101451.13;4940052;28;20035;-77
2022/12/07 02:07:47;;;;;;;36.97;21.70;;;;;;;3.40;100.00;101449.53;4944043;28;20042;-78
2022/12/07 02:10:15;;;;;;;38.15;22.23;;;;;;;3.43;100.00;101450.19;4941810;28;20030;-78
2022/12/07 02:12:42;;;;;;;40.13;22.13;;;;;;;3.45;100.00;101450.91;4959517;28;20630;-78
2022/12/07 02:15:08;;;;;;;39.20;21.92;;;;;;;3.42;100.00;101442.56;4953985;28;20270;-79
2022/12/07 02:18:06;;;;;;;38.72;21.83;;;;;;;3.34;100.00;101443.03;4937741;28;20037;-78
2022/12/07 02:20:46;;;;;;;41.33;21.85;;;;;;;3.33;100.00;101448.25;4939284;28;20570;-78
2022/12/07 02:23:40;;;;;;;36.53;21.60;;;;;;;3.33;100.00;101450.81;4963949;28;20053;-80
2022/12/07 02:26:19;;;;;;;;;;;;;;;3.24;100.00;101447.91;4948721;28;20055;-79
2022/12/07 02:29:09;;;;;;;44.63;22.40;;;;;;;3.33;100.00;101448.25;4951286;28;20127;-78
2022/12/07 02:31:37;;;;;;;39.97;22.23;;;;;;;3.38;100.00;101451.38;4947792;28;20133;-75
2022/12/07 02:34:14;;;;;;;40.30;22.45;;;;;;;3.26;100.00;101443.50;4943763;28;20039;-77
2022/12/07 02:36:46;;;;;;;44.22;23.65;;;;;;;3.18;100.00;101438.00;4928640;28;20115;-79
2022/12/07 02:39:20;;;;;;;41.30;23.48;;;;;;;3.19;100.00;101443.97;4942816;28;20042;-78
2022/12/07 02:41:55;;;;;;;38.65;24.35;;;;;;;3.20;100.00;101448.16;4924939;28;20760;-78
2022/12/07 02:44:25;;;;;;;37.58;22.17;;;;;;;3.19;100.00;101454.22;4932593;29;20036;-79
2022/12/07 02:46:56;;;;;;;42.78;23.50;;;;;;;3.23;100.00;101453.94;4937126;28;20066;-77
2022/12/07 02:49:24;;;;;;;42.80;23.15;;;;;;;3.19;100.00;101447.34;4955544;28;20124;-79
2022/12/07 02:51:52;;;;;;;38.28;22.88;;;;;;;3.16;100.00;101444.97;4946876;28;20090;-78
2022/12/07 02:54:20;;;;;;;42.92;24.02;;;;;;;3.31;100.00;101443.22;4951770;28;20031;-78
2022/12/07 02:57:03;;;;;;;41.70;23.73;;;;;;;3.20;100.00;101443.88;4944611;28;20058;-79
2022/12/07 03:00:09;;;;;;;45.90;25.45;;;;;;;3.20;100.00;101449.00;4953233;28;20027;-78
2022/12/07 03:02:49;;;;;;;45.83;23.42;;;;;;;3.19;100.00;101443.97;4945024;28;20736;-78
2022/12/07 03:05:33;;;;;;;42.95;23.80;;;;;;;3.12;100.00;101446.88;4947161;28;20559;-81
2022/12/07 03:08:24;;;;;;;37.58;22.17;;;;;;;3.21;100.00;101445.50;4945028;28;20031;-78
2022/12/07 03:11:09;;;;;;;37.70;21.83;;;;;;;3.15;100.00;101439.94;4948581;28;20051;-78
2022/12/07 03:14:01;;;;;;;38.28;21.55;;;;;;;3.19;100.00;101444.78;4944967;28;20040;-81
2022/12/07 03:16:32;;;;;;;36.30;20.73;;;;;;;3.17;100.00;101443.25;4967013;28;20114;-78
2022/12/07 03:19:07;;;;;;;46.00;20.48;;;;;;;3.08;100.00;101449.72;4948306;28;20039;-79
2022/12/07 03:21:46;;;;;;;37.00;21.35;;;;;;;2.97;100.00;101444.41;4969636;28;20054;-79
2022/12/07 03:24:19;;;;;;;36.33;22.15;;;;;;;3.05;100.00;101447.34;4963296;28;20034;-79
2022/12/07 03:26:48;;;;;;;32.80;20.25;;;;;;;2.98;100.00;101446.91;4943268;28;20670;-77
2022/12/07 03:29:23;;;;;;;45.70;22.30;;;;;;;2.96;100.00;101440.19;4949100;28;20027;-78
2022/12/07 03:31:58;;;;;;;38.83;21.33;;;;;;;2.93;100.00;101439.47;4965702;28;20058;-77
2022/12/07 03:34:44;;;;;;;36.15;20.17;;;;;;;3.00;100.00;101441.69;4962107;28;20142;-82
2022/12/07 03:37:18;;;;;;;35.38;20.05;;;;;;;2.95;100.00;101446.25;4962821;28;20106;-82
2022/12/07 03:40:00;;;;;;;39.72;19.70;;;;;;;2.91;100.00;101441.28;4949313;28;20035;-77
2022/12/07 03:42:26;;;;;;;63.40;27.23;;;;;;;3.00;100.00;101439.13;4956839;28;20182;-77
2022/12/07 03:44:51;;;;;;;55.70;27.42;;;;;;;2.97;100.00;101434.16;4947692;28;20538;-77
2022/12/07 03:47:32;;;;;;;41.65;23.55;;;;;;;2.91;100.00;101431.06;4948019;28;20772;-77
2022/12/07 03:50:11;;;;;;;37.42;22.60;;;;;;;2.85;100.00;101436.53;4950822;28;20097;-77
2022/12/07 03:52:53;;;;;;;43.72;21.52;;;;;;;2.83;100.00;101433.25;4951641;28;20125;-77
2022/12/07 03:55:26;;;;;;;38.85;21.30;;;;;;;2.91;100.00;101436.19;4943901;28;20039;-79
2022/12/07 03:57:56;;;;;;;34.65;19.45;;;;;;;2.89;100.00;101434.63;4947261;28;20387;-78
2022/12/07 04:00:22;;;;;;;32.20;19.45;;;;;;;2.79;100.00;101438.63;4946587;28;20038;-79
2022/12/07 04:02:51;;;;;;;31.42;18.73;;;;;;;2.73;100.00;101442.38;4946270;28;20038;-80
2022/12/07 04:05:17;;;;;;;34.53;20.35;;;;;;;2.83;100.00;101440.94;4947522;28;20121;-78
2022/12/07 04:07:42;;;;;;;32.50;19.23;;;;;;;2.80;100.00;101443.66;4945860;28;20122;-79
2022/12/07 04:10:08;;;;;;;35.65;20.70;;;;;;;2.82;100.00;101444.41;4949451;28;20042;-79
2022/12/07 04:12:34;;;;;;;29.38;19.15;;;;;;;2.80;100.00;101441.09;4948231;28;20177;-78
2022/12/07 04:14:59;;;;;;;30.80;18.50;;;;;;;2.88;100.00;101445.78;4950399;28;20034;-79
2022/12/07 04:17:25;;;;;;;37.28;21.92;;;;;;;2.82;100.00;101436.72;4948613;28;20040;-80
2022/12/07 04:19:50;;;;;;;37.42;20.50;;;;;;;2.80;100.00;101437.72;4948792;28;20051;-77
2022/12/07 04:22:16;;;;;;;51.58;29.38;;;;;;;2.78;100.00;101447.25;4947336;28;20043;-77
2022/12/07 04:24:41;;;;;;;49.90;27.88;;;;;;;2.77;100.00;101443.00;4951491;28;20047;-78
2022/12/07 04:27:06;;;;;;;56.25;32.17;;;;;;;2.72;100.00;101444.13;4948632;28;20058;-78
2022/12/07 04:29:32;;;;;;;39.50;22.65;;;;;;;2.78;100.00;101439.56;4951111;28;20042;-78
2022/12/07 04:31:57;;;;;;;35.80;21.25;;;;;;;2.85;100.00;101440.84;4933794;28;20062;-82
2022/12/07 04:34:23;;;;;;;56.90;30.40;;;;;;;2.77;100.00;101437.91;4953995;28;20054;-77
2022/12/07 04:36:48;;;;;;;74.30;38.05;;;;;;;2.87;100.00;101434.72;4948615;28;20051;-78
2022/12/07 04:39:21;;;;;;;57.78;30.45;;;;;;;2.80;100.00;101437.72;4941969;28;20082;-78
2022/12/07 04:41:47;;;;;;;34.38;18.70;;;;;;;2.74;100.00;101446.59;4945614;28;20126;-77
2022/12/07 04:44:14;;;;;;;46.28;24.23;;;;;;;2.79;100.00;101436.91;4949026;28;20027;-77
2022/12/07 04:46:40;;;;;;;49.08;24.40;;;;;;;2.78;100.00;101432.69;4950293;28;20051;-79
2022/12/07 04:49:05;;;;;;;32.97;19.08;;;;;;;2.76;100.00;101434.53;4946516;28;20038;-78
2022/12/07 04:51:31;;;;;;;34.85;20.55;;;;;;;2.80;100.00;101430.84;4946860;28;20039;-78
2022/12/07 04:53:57;;;;;;;37.22;18.70;;;;;;;2.82;100.00;101431.59;4947715;28;20503;-79
2022/12/07 04:56:24;;;;;;;48.85;23.95;;;;;;;2.82;100.00;101429.03;4937364;28;20060;-79
2022/12/07 04:58:51;;;;;;;47.72;24.63;;;;;;;2.77;100.00;101425.94;4948559;28;20023;-79
2022/12/07 05:01:17;;;;;;;60.88;28.50;;;;;;;2.80;100.00;101428.28;4947622;28;20102;-77
2022/12/07 05:03:43;;;;;;;64.93;28.48;;;;;;;2.73;100.00;101427.84;4948137;28;20082;-78
2022/12/07 05:06:10;;;;;;;31.42;16.27;;;;;;;2.80;100.00;101432.59;4929367;28;20618;-78
2022/12/07 05:08:36;;;;;;;28.20;14.75;;;;;;;2.83;100.00;101427.31;4964437;28;20035;-80
2022/12/07 05:11:03;;;;;;;24.38;14.73;;;;;;;2.75;100.00;101425.19;4952305;28;20063;-79
2022/12/07 05:13:28;;;;;;;25.58;14.73;;;;;;;2.73;100.00;101419.31;4951871;28;20046;-78
2022/12/07 05:15:54;;;;;;;33.75;15.82;;;;;;;2.69;100.00;101420.41;4947740;28;20044;-79
2022/12/07 05:18:19;;;;;;;32.75;15.75;;;;;;;2.67;100.00;101435.06;4960550;28;20050;-77
2022/12/07 05:20:45;;;;;;;23.60;14.63;;;;;;;2.68;100.00;101434.97;4949213;28;20554;-79
2022/12/07 05:23:11;;;;;;;35.60;17.10;;;;;;;2.72;100.00;101435.63;4946763;28;20796;-78
2022/12/07 05:25:37;;;;;;;28.85;15.65;;;;;;;2.71;100.00;101432.25;4952773;28;20047;-78
2022/12/07 05:28:04;;;;;;;29.13;15.85;;;;;;;2.74;100.00;101433.78;4945604;28;20383;-77
2022/12/07 05:30:29;;;;;;;25.95;15.27;;;;;;;2.63;100.00;101439.53;4961847;28;20074;-77
2022/12/07 05:32:55;;;;;;;32.25;16.35;;;;;;;2.61;100.00;101436.22;4948845;28;20050;-77
2022/12/07 05:35:21;;;;;;;27.40;15.90;;;;;;;2.65;100.00;101427.44;4946624;28;20540;-79
2022/12/07 05:37:47;;;;;;;27.92;15.30;;;;;;;2.60;100.00;101432.03;4935476;28;20043;-79
2022/12/07 05:40:14;;;;;;;28.80;16.98;;;;;;;2.59;100.00;101427.81;4951758;28;20034;-79
2022/12/07 05:42:40;;;;;;;30.20;15.90;;;;;;;2.62;100.00;101434.50;4950315;28;20555;-77
2022/12/07 05:45:07;;;;;;;25.98;16.30;;;;;;;2.67;100.00;101422.25;4953403;28;20034;-79
2022/12/07 05:47:33;;;;;;;27.17;15.90;;;;;;;2.63;100.00;101416.47;4946934;28;20045;-80
2022/12/07 05:49:58;;;;;;;29.83;16.42;;;;;;;2.57;100.00;101423.72;4947723;28;20027;-77
2022/12/07 05:52:24;;;;;;;31.58;17.45;;;;;;;2.66;100.00;101420.63;4935637;28;20778;-77
2022/12/07 05:54:49;;;;;;;34.05;18.23;;;;;;;2.69;100.00;101418.69;4946221;28;20040;-78
2022/12/07 05:57:15;;;;;;;32.92;17.17;;;;;;;2.66;100.00;101413.75;4957543;28;20697;-77
2022/12/07 05:59:40;;;;;;;28.90;17.63;;;;;;;2.69;100.00;101415.28;4945118;28;20114;-78
2022/12/07 06:02:08;;;;;;;35.83;17.13;;;;;;;2.73;100.00;101412.47;4947330;28;20054;-78
2022/12/07 06:04:37;;;;;;;34.63;16.85;;;;;;;2.68;100.00;101424.72;4963923;28;20031;-78
2022/12/07 06:07:04;;;;;;;39.03;16.50;;;;;;;2.71;100.00;101421.16;4966841;28;20122;-77
2022/12/07 06:09:29;;;;;;;29.48;18.00;;;;;;;2.75;100.00;101420.09;4944182;28;20044;-79
2022/12/07 06:14:40;;;;;;;37.25;16.88;;;;;;;2.79;100.00;101418.13;4948154;28;20061;-77
2022/12/07 06:17:06;;;;;;;30.00;15.73;;;;;;;2.74;100.00;101428.66;4950732;28;20491;-78
2022/12/07 06:19:32;;;;;;;25.67;15.63;;;;;;;2.72;100.00;101427.94;4947865;28;20039;-80
2022/12/07 06:21:58;;;;;;;26.70;15.25;;;;;;;2.82;100.00;101426.47;4958972;28;20043;-82
2022/12/07 06:24:23;;;;;;;27.20;15.45;;;;;;;2.85;100.00;101423.72;4948526;28;20035;-78
2022/12/07 06:26:49;;;;;;;31.65;15.13;;;;;;;2.81;100.00;101424.03;4945447;28;20055;-79
2022/12/07 06:29:16;;;;;;;24.45;16.20;;;;;;;2.76;100.00;101421.72;4949639;28;20039;-77
2022/12/07 06:31:41;;;;;;;33.80;15.80;;;;;;;2.79;100.00;101423.25;4944675;28;20039;-78
2022/12/07 06:34:10;;;;;;;30.50;16.13;;;;;;;2.71;100.00;101421.16;4949957;28;20041;-79
2022/12/07 06:36:35;;;;;;;25.98;15.45;;;;;;;2.82;100.00;101426.47;4948998;28;20039;-77
2022/12/07 06:39:02;;;;;;;31.75;17.05;;;;;;;2.79;100.00;101420.69;4952126;28;20050;-78
2022/12/07 06:41:28;;;;;;;32.42;17.27;;;;;;;2.78;100.00;101424.19;4948054;28;20519;-78
2022/12/07 06:43:53;;;;;;;30.42;15.27;;;;;;;2.81;100.00;101424.84;4947854;28;20039;-78
2022/12/07 06:46:19;;;;;;;24.63;14.35;;;;;;;2.70;100.00;101417.78;4965876;28;20063;-80
2022/12/07 06:48:45;;;;;;;22.90;13.93;;;;;;;2.70;100.00;101422.06;4947205;28;20452;-79
2022/12/07 06:51:10;;;;;;;29.25;13.05;;;;;;;2.70;100.00;101420.34;4941550;28;20051;-79
2022/12/07 06:53:36;;;;;;;25.33;13.30;;;;;;;2.76;100.00;101428.59;4940777;29;20059;-78
2022/12/07 06:56:03;;;;;;;23.90;13.32;;;;;;;2.69;100.00;101423.81;4935539;28;20516;-78
2022/12/07 06:58:29;;;;;;;24.70;13.35;;;;;;;2.68;100.00;101440.09;4947361;28;20114;-78
2022/12/07 07:00:54;;;;;;;24.48;12.65;;;;;;;2.64;100.00;101435.25;4938408;28;20700;-78
2022/12/07 07:03:23;;;;;;;22.05;11.45;;;;;;;2.62;100.00;101437.03;4948728;28;20030;-79
2022/12/07 07:05:48;;;;;;;20.30;11.95;;;;;;;2.52;100.00;101435.03;4953673;28;20035;-78
2022/12/07 07:08:14;;;;;;;21.85;12.32;;;;;;;2.55;100.00;101435.78;4950383;28;20026;-79
2022/12/07 07:10:40;;;;;;;27.23;11.18;;;;;;;2.56;100.00;101437.41;4933496;28;20047;-79
2022/12/07 07:13:06;;;;;;;22.35;12.02;;;;;;;2.54;100.00;101429.81;4944209;28;20035;-78
2022/12/07 07:15:33;;;;;;;19.75;11.48;;;;;;;2.57;100.00;101431.38;4945638;28;20048;-78
2022/12/07 07:17:58;;;;;;;22.60;10.77;;;;;;;2.56;100.00;101432.28;4948587;28;20412;-78
2022/12/07 07:20:24;;;;;;;18.20;10.38;;;;;;;2.57;100.00;101433.94;4945930;28;20034;-78
2022/12/07 07:22:49;;;;;;;20.95;10.60;;;;;;;2.57;100.00;101437.31;4948506;28;20090;-81
2022/12/07 07:25:15;;;;;;;19.95;11.32;;;;;;;2.58;100.00;101435.59;4947448;28;20031;-78
2022/12/07 07:27:42;;;;;;;19.30;11.35;;;;;;;2.67;100.00;101437.63;4944186;28;20179;-78
2022/12/07 07:30:08;;;;;;;17.83;11.70;;;;;;;2.56;100.00;101439.97;4954977;28;20027;-77
2022/12/07 07:32:34;;;;;;;19.67;10.77;;;;;;;2.49;100.00;101429.28;4946957;28;20035;-78
2022/12/07 07:34:59;;;;;;;23.23;10.65;;;;;;;2.40;100.00;101428.06;4935217;28;20078;-78
2022/12/07 07:37:25;;;;;;;22.13;10.98;;;;;;;2.40;100.00;101440.03;4938316;28;20106;-78
2022/12/07 07:39:50;;;;;;;21.27;10.68;;;;;;;2.34;100.00;101438.66;4928836;28;20148;-80
2022/12/07 07:42:16;;;;;;;17.25;10.25;;;;;;;2.26;100.00;101446.75;4956216;28;20048;-79
2022/12/07 07:44:42;;;;;;;22.48;11.98;;;;;;;2.39;100.00;101441.75;4950500;28;20301;-78
2022/12/07 07:47:08;;;;;;;21.98;11.57;;;;;;;2.42;100.00;101440.78;4936527;28;20071;-78
2022/12/07 07:49:33;;;;;;;18.85;11.05;;;;;;;2.36;100.00;101444.50;4947055;28;20062;-79
2022/12/07 07:51:59;;;;;;;20.13;11.73;;;;;;;2.43;100.00;101447.53;4951937;28;20420;-79
2022/12/07 07:54:24;;;;;;;23.52;13.43;;;;;;;2.50;100.00;101447.09;4954016;28;20710;-80
2022/12/07 07:56:50;;;;;;;21.67;12.23;;;;;;;2.53;100.00;101443.53;4946831;28;20094;-78
2022/12/07 07:59:15;;;;;;;29.77;15.25;;;;;;;2.44;100.00;101446.63;4949841;28;20035;-77
2022/12/07 08:01:42;;;;;;;31.35;12.95;;;;;;;2.57;100.00;101450.13;4948047;28;20704;-79
2022/12/07 08:04:07;;;;;;;28.10;13.25;;;;;;;2.62;100.00;101447.28;4927954;29;20027;-77
2022/12/07 08:06:32;;;;;;;22.58;12.27;;;;;;;2.49;100.00;101448.00;4941127;28;20551;-77
2022/12/07 08:09:00;;;;;;;25.80;12.02;;;;;;;2.57;100.00;101446.75;4933300;28;20039;-77
2022/12/07 08:11:25;;;;;;;22.85;12.90;;;;;;;2.64;100.00;101451.44;4946599;28;20074;-77
2022/12/07 08:13:51;;;;;;;29.02;13.70;;;;;;;2.68;100.00;101447.78;4966390;28;20031;-78
2022/12/07 08:16:17;;;;;;;29.33;14.68;;;;;;;2.72;100.00;101456.09;4948600;28;20056;-78
2022/12/07 08:18:43;;;;;;;25.90;12.85;;;;;;;2.84;100.00;101460.50;4940181;29;20050;-78
2022/12/07 08:21:14;;;;;;;22.02;11.90;;;;;;;2.79;100.00;101459.13;4927725;28;20035;-79
2022/12/07 08:23:39;;;;;;;28.23;12.60;;;;;;;2.85;100.00;101451.09;4950605;28;20085;-77
2022/12/07 08:26:08;;;;;;;25.67;12.95;;;;;;;2.93;100.00;101456.59;4949537;28;20436;-77
2022/12/07 08:28:34;;;;;;;27.52;12.93;;;;;;;2.95;100.00;101452.19;4942270;29;20034;-78
2022/12/07 08:31:01;;;;;;;33.67;12.90;;;;;;;2.95;100.00;101465.00;4946893;28;20058;-77
2022/12/07 08:33:27;;;;;;;23.48;11.85;;;;;;;2.95;100.00;101461.63;4959504;28;20118;-78
2022/12/07 08:35:52;;;;;;;24.67;12.48;;;;;;;2.90;100.00;101467.00;4945862;28;20512;-78
2022/12/07 08:38:18;;;;;;;26.23;12.77;;;;;;;2.86;100.00;101471.50;4962764;28;20042;-78
2022/12/07 08:40:43;;;;;;;23.95;12.43;;;;;;;2.92;100.00;101460.91;4940929;28;20699;-79
2022/12/07 08:43:09;;;;;;;25.50;12.75;;;;;;;3.06;100.00;101465.19;4943562;28;20786;-80
2022/12/07 08:45:35;;;;;;;29.52;12.68;;;;;;;3.10;100.00;101460.72;4954415;28;20109;-79
2022/12/07 08:48:07;;;;;;;23.52;11.30;;;;;;;3.10;100.00;101458.16;4958599;28;20047;-78
2022/12/07 08:50:34;;;;;;;24.50;11.40;;;;;;;3.11;100.00;101460.63;4943623;28;20118;-78
2022/12/07 08:53:00;;;;;;;24.58;12.07;;;;;;;3.12;100.00;101464.00;4949931;28;20032;-78
2022/12/07 08:55:27;;;;;;;28.60;12.88;;;;;;;3.17;100.00;101456.88;4946364;28;20190;-79
2022/12/07 08:57:52;;;;;;;23.27;11.95;;;;;;;3.25;100.00;101457.22;4948508;28;20093;-78
2022/12/07 09:00:18;;;;;;;24.67;12.68;;;;;;;3.26;100.00;101456.31;4945647;28;20038;-78
2022/12/07 09:02:44;;;;;;;24.77;12.82;;;;;;;3.36;100.00;101450.66;4958719;28;20809;-79
2022/12/07 09:05:10;;;;;;;19.42;10.70;;;;;;;3.26;100.00;101446.06;4948626;28;20087;-79
2022/12/07 09:07:37;;;;;;;26.88;11.43;;;;;;;3.20;100.00;101448.16;4947123;28;20117;-80
2022/12/07 09:10:03;;;;;;;23.90;11.50;;;;;;;3.29;100.00;101452.75;4942092;28;20098;-78
2022/12/07 09:12:28;;;;;;;29.15;13.00;;;;;;;3.27;100.00;101455.41;4947037;28;20079;-78
2022/12/07 09:14:54;;;;;;;19.48;11.65;;;;;;;3.42;100.00;101455.38;4967986;28;20027;-78
2022/12/07 09:17:19;;;;;;;18.67;10.57;;;;;;;3.44;100.00;101451.81;4949723;28;20058;-79
2022/12/07 09:19:46;;;;;;;19.73;11.30;;;;;;;3.44;100.00;101454.38;4944213;28;20047;-78
2022/12/07 09:22:11;;;;;;;23.50;10.93;;;;;;;3.34;100.00;101455.88;4952641;28;20098;-78
2022/12/07 09:24:36;;;;;;;24.83;11.50;;;;;;;3.31;100.00;101450.91;4951631;28;20023;-78
2022/12/07 09:27:02;;;;;;;23.25;11.45;;;;;;;3.50;100.00;101450.59;4950387;28;20055;-77
2022/12/07 09:29:27;;;;;;;22.30;11.27;;;;;;;3.34;100.00;101450.72;4947029;28;20428;-77
2022/12/07 09:31:53;;;;;;;26.48;11.02;;;;;;;3.39;100.00;101451.28;4948491;28;20043;-80
2022/12/07 09:34:19;;;;;;;19.77;11.23;;;;;;;3.55;100.00;101456.28;4948822;28;20034;-79
2022/12/07 09:36:45;;;;;;;27.63;11.85;;;;;;;3.54;100.00;101451.25;4944168;28;20068;-78
2022/12/07 09:39:11;;;;;;;24.42;10.93;;;;;;;3.65;100.00;101449.66;4946917;28;20691;-80
2022/12/07 09:41:39;;;;;;;20.98;10.30;;;;;;;3.71;100.00;101456.16;4960360;28;20060;-78
2022/12/07 09:44:07;;;;;;;23.00;10.77;;;;;;;3.73;100.00;101456.06;4956125;28;20380;-77
2022/12/07 09:46:38;;;;;;;19.95;10.98;;;;;;;3.89;100.00;101454.19;4961220;28;20106;-76
2022/12/07 09:49:08;;;;;;;25.58;10.23;;;;;;;3.92;100.00;101454.00;4962436;28;20042;-78
2022/12/07 09:51:34;;;;;;;18.52;9.27;;;;;;;4.00;100.00;101456.09;4948372;28;20039;-78
2022/12/07 09:54:00;;;;;;;19.75;9.20;;;;;;;3.97;100.00;101451.94;4946849;28;20050;-77
2022/12/07 09:56:25;;;;;;;15.55;9.85;;;;;;;4.01;100.00;101450.88;4947588;28;20043;-79
2022/12/07 09:59:01;;;;;;;24.15;9.50;;;;;;;4.03;100.00;101445.59;4961293;28;20578;-77
2022/12/07 10:01:34;;;;;;;24.40;10.43;;;;;;;3.98;100.00;101453.63;4937401;28;20118;-80
2022/12/07 10:04:24;;;;;;;16.75;9.95;;;;;;;4.04;100.00;101442.94;4944230;28;20059;-78
2022/12/07 10:06:51;;;;;;;25.02;9.50;;;;;;;4.05;100.00;101441.19;4942694;28;20063;-78
2022/12/07 10:09:18;;;;;;;24.15;10.73;;;;;;;4.07;100.00;101445.34;4953414;28;20035;-78
2022/12/07 10:12:04;;;;;;;27.23;9.60;;;;;;;4.17;100.00;101445.56;4946014;28;20066;-78
2022/12/07 10:14:33;;;;;;;18.05;8.85;;;;;;;4.23;100.00;101444.34;4945058;28;20599;-79
2022/12/07 10:16:59;;;;;;;24.88;9.55;;;;;;;4.24;100.00;101426.28;4943753;28;20156;-79
2022/12/07 10:19:30;;;;;;;20.83;9.07;;;;;;;4.25;100.00;101430.47;4928572;29;20435;-78
2022/12/07 10:22:12;;;;;;;23.83;9.27;;;;;;;4.40;100.00;101430.41;4958553;28;20043;-78
2022/12/07 10:24:42;;;;;;;22.45;8.13;;;;;;;4.35;100.00;101429.88;4932168;29;20031;-78
2022/12/07 10:27:34;;;;;;;24.40;8.73;;;;;;;4.28;100.00;101426.91;4948595;28;20058;-78
2022/12/07 10:29:59;;;;;;;17.38;7.70;;;;;;;4.36;100.00;101424.66;4953236;28;20556;-81
2022/12/07 10:32:36;;;;;;;15.23;7.65;;;;;;;4.48;100.00;101429.00;4949334;28;20047;-79
2022/12/07 10:35:42;;;;;;;18.92;8.30;;;;;;;4.33;100.00;101414.56;4957473;28;20082;-78
2022/12/07 10:38:16;;;;;;;18.80;8.02;;;;;;;4.34;100.00;101418.78;4934790;28;20122;-77
2022/12/07 10:40:42;;;;;;;16.73;7.53;;;;;;;4.23;100.00;101410.97;4954446;28;20056;-79
2022/12/07 10:43:14;;;;;;;19.08;8.15;;;;;;;4.20;100.00;101416.28;4947294;28;20031;-77
2022/12/07 10:46:21;;;;;;;19.67;9.05;;;;;;;4.27;100.00;101407.28;4952691;28;20055;-78
2022/12/07 10:49:18;;;;;;;17.70;8.43;;;;;;;4.22;100.00;101404.16;4935450;28;20047;-79
2022/12/07 10:51:52;;;;;;;15.77;7.68;;;;;;;4.22;100.00;101401.59;4944133;28;20077;-78
2022/12/07 10:54:32;;;;;;;19.85;8.18;;;;;;;4.20;100.00;101399.16;4957165;28;20031;-78
2022/12/07 10:57:24;;;;;;;22.48;9.07;;;;;;;4.18;100.00;101395.88;4948017;28;20062;-79
2022/12/07 11:00:08;;;;;;;20.35;10.38;;;;;;;4.36;100.00;101391.28;4938995;28;20054;-79
2022/12/07 11:03:01;;;;;;;25.33;9.77;;;;;;;4.25;100.00;101391.16;4922573;29;20039;-78
2022/12/07 11:05:48;;;;;;;18.33;9.30;;;;;;;4.42;100.00;101390.84;4947208;28;20035;-79
2022/12/07 11:08:26;;;;;;;19.38;9.98;;;;;;;4.40;100.00;101385.00;4960930;28;20031;-78
2022/12/07 11:11:09;;;;;;;28.88;11.40;;;;;;;4.39;100.00;101385.94;4960904;28;20530;-79
2022/12/07 11:13:39;;;;;;;;;;;;;;;4.46;100.00;101381.19;4951118;28;20028;-78
2022/12/07 11:16:21;;;;;;;23.80;11.23;;;;;;;4.34;100.00;101382.84;4961832;28;19930;-80
2022/12/07 11:19:16;;;;;;;35.15;11.32;;;;;;;4.37;100.00;101377.50;4933305;28;20061;-79
2022/12/07 11:21:58;;;;;;;20.63;10.38;;;;;;;4.49;100.00;101371.56;4953419;28;20580;-77
2022/12/07 11:24:49;;;;;;;20.48;10.38;;;;;;;4.43;100.00;101356.56;4950373;28;20031;-81
2022/12/07 11:27:24;;;;;;;22.35;10.10;;;;;;;4.41;100.00;101368.69;4930384;28;20057;-81